createdAt,value
2022-11-26T00:00:13.390Z,1014.98
2022-11-26T00:00:34.435Z,1015.00
2022-11-26T00:00:55.501Z,1014.98
2022-11-26T00:01:16.568Z,1015.00
2022-11-26T00:01:37.616Z,1014.97
2022-11-26T00:01:58.731Z,1014.95
2022-11-26T00:02:19.835Z,1014.98
2022-11-26T00:02:41.129Z,1014.95
2022-11-26T00:03:02.469Z,1014.95
2022-11-26T00:03:23.585Z,1014.97
2022-11-26T00:03:44.753Z,1014.97
2022-11-26T00:04:05.803Z,1014.98
2022-11-26T00:04:26.868Z,1014.98
2022-11-26T00:04:47.926Z,1014.98
2022-11-26T00:05:08.985Z,1015.02
2022-11-26T00:05:30.097Z,1015.02
2022-11-26T00:05:51.137Z,1015.02
2022-11-26T00:06:12.194Z,1015.04
2022-11-26T00:06:33.252Z,1015.06
2022-11-26T00:06:54.311Z,1015.00
2022-11-26T00:07:15.482Z,1015.00
2022-11-26T00:07:36.588Z,1015.02
2022-11-26T00:07:57.763Z,1015.02
2022-11-26T00:08:18.827Z,1015.04
2022-11-26T00:08:39.926Z,1015.06
2022-11-26T00:09:00.959Z,1015.06
2022-11-26T00:09:22.031Z,1015.06
2022-11-26T00:09:43.078Z,1015.06
2022-11-26T00:10:04.276Z,1015.08
2022-11-26T00:10:25.313Z,1015.08
2022-11-26T00:10:46.371Z,1015.06
2022-11-26T00:11:07.441Z,1015.08
2022-11-26T00:11:28.503Z,1015.10
2022-11-26T00:11:49.547Z,1015.12
2022-11-26T00:12:10.633Z,1015.10
2022-11-26T00:12:31.772Z,1015.14
2022-11-26T00:12:52.835Z,1015.12
2022-11-26T00:13:14.033Z,1015.12
2022-11-26T00:13:35.102Z,1015.14
2022-11-26T00:13:56.142Z,1015.12
2022-11-26T00:14:17.275Z,1015.14
2022-11-26T00:14:38.653Z,1015.14
2022-11-26T00:14:59.908Z,1015.14
2022-11-26T00:15:20.963Z,1015.12
2022-11-26T00:15:42.026Z,1015.12
2022-11-26T00:16:03.170Z,1015.14
2022-11-26T00:16:24.302Z,1015.14
2022-11-26T00:16:45.413Z,1015.16
2022-11-26T00:17:06.504Z,1015.18
2022-11-26T00:17:27.550Z,1015.18
2022-11-26T00:17:48.608Z,1015.14
2022-11-26T00:18:09.656Z,1015.16
2022-11-26T00:18:30.714Z,1015.16
2022-11-26T00:18:51.800Z,1015.16
2022-11-26T00:19:12.848Z,1015.18
2022-11-26T00:19:34.032Z,1015.20
2022-11-26T00:19:55.090Z,1015.16
2022-11-26T00:20:16.135Z,1015.20
2022-11-26T00:20:37.192Z,1015.20
2022-11-26T00:20:58.242Z,1015.18
2022-11-26T00:21:19.299Z,1015.22
2022-11-26T00:21:40.363Z,1015.20
2022-11-26T00:22:01.422Z,1015.20
2022-11-26T00:22:22.491Z,1015.20
2022-11-26T00:22:43.572Z,1015.20
2022-11-26T00:23:04.618Z,1015.20
2022-11-26T00:23:25.676Z,1015.24
2022-11-26T00:23:46.731Z,1015.18
2022-11-26T00:24:07.820Z,1015.20
2022-11-26T00:24:28.864Z,1015.20
2022-11-26T00:24:49.943Z,1015.20
2022-11-26T00:25:10.995Z,1015.22
2022-11-26T00:25:32.051Z,1015.18
2022-11-26T00:25:53.116Z,1015.22
2022-11-26T00:26:14.192Z,1015.24
2022-11-26T00:26:35.287Z,1015.24
2022-11-26T00:26:56.340Z,1015.24
2022-11-26T00:27:17.409Z,1015.24
2022-11-26T00:27:38.445Z,1015.26
2022-11-26T00:27:59.560Z,1015.26
2022-11-26T00:28:20.582Z,1015.30
2022-11-26T00:28:41.641Z,1015.28
2022-11-26T00:29:02.743Z,1015.30
2022-11-26T00:29:23.767Z,1015.30
2022-11-26T00:29:44.826Z,1015.32
2022-11-26T00:30:06.016Z,1015.34
2022-11-26T00:30:27.026Z,1015.32
2022-11-26T00:30:48.083Z,1015.32
2022-11-26T00:31:09.138Z,1015.32
2022-11-26T00:31:30.279Z,1015.34
2022-11-26T00:31:51.371Z,1015.36
2022-11-26T00:32:12.512Z,1015.38
2022-11-26T00:32:33.619Z,1015.38
2022-11-26T00:32:54.657Z,1015.38
2022-11-26T00:33:15.718Z,1015.40
2022-11-26T00:33:36.770Z,1015.42
2022-11-26T00:33:57.833Z,1015.40
2022-11-26T00:34:18.902Z,1015.42
2022-11-26T00:34:40.204Z,1015.42
2022-11-26T00:35:01.388Z,1015.42
2022-11-26T00:35:22.494Z,1015.42
2022-11-26T00:35:43.542Z,1015.42
2022-11-26T00:36:04.606Z,1015.44
2022-11-26T00:36:25.680Z,1015.44
2022-11-26T00:36:46.735Z,1015.42
2022-11-26T00:37:07.792Z,1015.42
2022-11-26T00:37:28.843Z,1015.42
2022-11-26T00:37:49.896Z,1015.44
2022-11-26T00:38:10.984Z,1015.45
2022-11-26T00:38:32.030Z,1015.44
2022-11-26T00:38:53.196Z,1015.45
2022-11-26T00:39:14.229Z,1015.47
2022-11-26T00:39:35.279Z,1015.47
2022-11-26T00:39:56.355Z,1015.45
2022-11-26T00:40:17.494Z,1015.45
2022-11-26T00:40:38.554Z,1015.45
2022-11-26T00:40:59.609Z,1015.44
2022-11-26T00:41:20.673Z,1015.44
2022-11-26T00:41:41.729Z,1015.44
2022-11-26T00:42:02.818Z,1015.45
2022-11-26T00:42:23.867Z,1015.45
2022-11-26T00:42:44.931Z,1015.45
2022-11-26T00:43:05.972Z,1015.45
2022-11-26T00:43:27.028Z,1015.47
2022-11-26T00:43:48.094Z,1015.47
2022-11-26T00:44:09.140Z,1015.45
2022-11-26T00:44:30.215Z,1015.45
2022-11-26T00:44:51.257Z,1015.47
2022-11-26T00:45:12.312Z,1015.49
2022-11-26T00:45:33.536Z,1015.47
2022-11-26T00:45:54.635Z,1015.47
2022-11-26T00:46:15.725Z,1015.49
2022-11-26T00:46:36.755Z,1015.49
2022-11-26T00:46:57.816Z,1015.51
2022-11-26T00:47:18.869Z,1015.49
2022-11-26T00:47:39.927Z,1015.47
2022-11-26T00:48:01.000Z,1015.47
2022-11-26T00:48:22.059Z,1015.47
2022-11-26T00:48:43.106Z,1015.47
2022-11-26T00:49:04.183Z,1015.49
2022-11-26T00:49:25.232Z,1015.51
2022-11-26T00:49:46.276Z,1015.53
2022-11-26T00:50:07.347Z,1015.53
2022-11-26T00:50:28.413Z,1015.53
2022-11-26T00:50:49.480Z,1015.55
2022-11-26T00:51:10.522Z,1015.55
2022-11-26T00:51:31.583Z,1015.55
2022-11-26T00:51:52.645Z,1015.57
2022-11-26T00:52:13.712Z,1015.57
2022-11-26T00:52:34.773Z,1015.59
2022-11-26T00:52:55.826Z,1015.57
2022-11-26T00:53:16.872Z,1015.59
2022-11-26T00:53:37.940Z,1015.72
2022-11-26T00:53:59.028Z,1015.68
2022-11-26T00:54:20.085Z,1015.70
2022-11-26T00:54:41.145Z,1015.72
2022-11-26T00:55:02.222Z,1015.68
2022-11-26T00:55:23.276Z,1015.68
2022-11-26T00:55:44.359Z,1015.70
2022-11-26T00:56:05.427Z,1015.70
2022-11-26T00:56:26.470Z,1015.74
2022-11-26T00:56:47.540Z,1015.72
2022-11-26T00:57:08.592Z,1015.72
2022-11-26T00:57:29.669Z,1015.76
2022-11-26T00:57:50.749Z,1015.78
2022-11-26T00:58:11.801Z,1015.78
2022-11-26T00:58:32.843Z,1015.78
2022-11-26T00:58:53.913Z,1015.78
2022-11-26T00:59:14.955Z,1015.78
2022-11-26T00:59:36.032Z,1015.80
2022-11-26T00:59:57.108Z,1015.80
2022-11-26T01:00:18.161Z,1015.80
2022-11-26T01:00:39.378Z,1015.82
2022-11-26T01:01:00.490Z,1015.80
2022-11-26T01:01:21.659Z,1015.80
2022-11-26T01:01:42.714Z,1015.80
2022-11-26T01:02:03.798Z,1015.80
2022-11-26T01:02:24.935Z,1015.80
2022-11-26T01:02:46.082Z,1015.80
2022-11-26T01:03:07.151Z,1015.78
2022-11-26T01:03:28.202Z,1015.78
2022-11-26T01:03:49.271Z,1015.78
2022-11-26T01:04:10.316Z,1015.78
2022-11-26T01:04:31.373Z,1015.80
2022-11-26T01:04:52.447Z,1015.82
2022-11-26T01:05:13.510Z,1015.78
2022-11-26T01:05:34.549Z,1015.78
2022-11-26T01:05:55.624Z,1015.82
2022-11-26T01:06:16.685Z,1015.80
2022-11-26T01:06:37.744Z,1015.80
2022-11-26T01:06:58.836Z,1015.78
2022-11-26T01:07:19.952Z,1015.78
2022-11-26T01:07:41.100Z,1015.78
2022-11-26T01:08:02.135Z,1015.82
2022-11-26T01:08:23.197Z,1015.80
2022-11-26T01:08:44.253Z,1015.78
2022-11-26T01:09:05.312Z,1015.78
2022-11-26T01:09:26.366Z,1015.82
2022-11-26T01:09:47.438Z,1015.82
2022-11-26T01:10:08.492Z,1015.84
2022-11-26T01:10:29.556Z,1015.86
2022-11-26T01:10:50.612Z,1015.86
2022-11-26T01:11:11.808Z,1015.84
2022-11-26T01:11:32.855Z,1015.84
2022-11-26T01:11:54.590Z,1015.86
2022-11-26T01:12:15.720Z,1015.84
2022-11-26T01:12:36.800Z,1015.80
2022-11-26T01:12:57.846Z,1015.78
2022-11-26T01:13:18.926Z,1015.82
2022-11-26T01:13:39.972Z,1015.80
2022-11-26T01:14:01.031Z,1015.82
2022-11-26T01:14:22.096Z,1015.80
2022-11-26T01:14:43.153Z,1015.80
2022-11-26T01:15:04.209Z,1015.80
2022-11-26T01:15:25.275Z,1015.82
2022-11-26T01:15:46.347Z,1015.80
2022-11-26T01:16:07.419Z,1015.80
2022-11-26T01:16:28.551Z,1015.78
2022-11-26T01:16:49.674Z,1015.78
2022-11-26T01:17:10.702Z,1015.80
2022-11-26T01:17:31.752Z,1015.80
2022-11-26T01:17:52.828Z,1015.80
2022-11-26T01:18:13.884Z,1015.82
2022-11-26T01:18:34.938Z,1015.82
2022-11-26T01:18:55.995Z,1015.84
2022-11-26T01:19:17.051Z,1015.86
2022-11-26T01:19:38.136Z,1015.84
2022-11-26T01:19:59.191Z,1015.86
2022-11-26T01:20:25.030Z,1015.86
2022-11-26T01:20:47.237Z,1015.88
2022-11-26T01:21:08.299Z,1015.86
2022-11-26T01:21:29.392Z,1015.90
2022-11-26T01:21:50.434Z,1015.90
2022-11-26T01:22:11.490Z,1015.90
2022-11-26T01:22:32.546Z,1015.88
2022-11-26T01:22:53.668Z,1015.90
2022-11-26T01:23:14.733Z,1015.90
2022-11-26T01:23:35.781Z,1015.90
2022-11-26T01:23:56.855Z,1015.90
2022-11-26T01:24:17.898Z,1015.88
2022-11-26T01:24:39.333Z,1015.88
2022-11-26T01:25:00.624Z,1015.88
2022-11-26T01:25:21.777Z,1015.84
2022-11-26T01:25:42.840Z,1015.84
2022-11-26T01:26:06.569Z,1015.84
2022-11-26T01:26:27.781Z,1015.80
2022-11-26T01:26:48.868Z,1015.84
2022-11-26T01:27:09.906Z,1015.82
2022-11-26T01:27:30.979Z,1015.84
2022-11-26T01:27:52.052Z,1015.84
2022-11-26T01:28:13.091Z,1015.84
2022-11-26T01:28:34.158Z,1015.86
2022-11-26T01:28:55.299Z,1015.86
2022-11-26T01:29:16.333Z,1015.88
2022-11-26T01:29:37.374Z,1015.86
2022-11-26T01:29:58.451Z,1015.86
2022-11-26T01:30:19.502Z,1015.88
2022-11-26T01:30:40.578Z,1015.90
2022-11-26T01:31:01.643Z,1015.91
2022-11-26T01:31:22.754Z,1015.93
2022-11-26T01:31:43.849Z,1015.95
2022-11-26T01:32:04.930Z,1015.99
2022-11-26T01:32:29.472Z,1015.97
2022-11-26T01:32:50.747Z,1015.99
2022-11-26T01:33:11.828Z,1016.03
2022-11-26T01:33:32.897Z,1016.01
2022-11-26T01:33:53.946Z,1016.03
2022-11-26T01:34:15.008Z,1016.05
2022-11-26T01:34:36.473Z,1016.07
2022-11-26T01:34:57.760Z,1016.05
2022-11-26T01:35:18.820Z,1016.09
2022-11-26T01:35:39.882Z,1016.09
2022-11-26T01:36:01.053Z,1016.07
2022-11-26T01:36:22.113Z,1016.07
2022-11-26T01:36:43.170Z,1016.07
2022-11-26T01:37:04.221Z,1016.09
2022-11-26T01:37:25.282Z,1016.09
2022-11-26T01:37:46.350Z,1016.05
2022-11-26T01:38:07.470Z,1016.09
2022-11-26T01:38:28.494Z,1016.09
2022-11-26T01:38:49.569Z,1016.09
2022-11-26T01:39:10.628Z,1016.09
2022-11-26T01:39:31.694Z,1016.13
2022-11-26T01:39:52.765Z,1016.13
2022-11-26T01:40:13.905Z,1016.15
2022-11-26T01:40:34.964Z,1016.13
2022-11-26T01:40:56.042Z,1016.15
2022-11-26T01:41:17.168Z,1016.19
2022-11-26T01:41:38.208Z,1016.19
2022-11-26T01:41:59.261Z,1016.21
2022-11-26T01:42:20.310Z,1016.21
2022-11-26T01:42:41.395Z,1016.21
2022-11-26T01:43:02.444Z,1016.25
2022-11-26T01:43:23.471Z,1016.25
2022-11-26T01:43:44.547Z,1016.27
2022-11-26T01:44:05.602Z,1016.25
2022-11-26T01:44:26.660Z,1016.27
2022-11-26T01:44:47.736Z,1016.25
2022-11-26T01:45:08.799Z,1016.27
2022-11-26T01:45:29.930Z,1016.29
2022-11-26T01:45:51.001Z,1016.25
2022-11-26T01:46:12.181Z,1016.25
2022-11-26T01:46:33.227Z,1016.25
2022-11-26T01:46:54.288Z,1016.25
2022-11-26T01:47:15.340Z,1016.19
2022-11-26T01:47:36.399Z,1016.25
2022-11-26T01:47:57.466Z,1016.21
2022-11-26T01:48:18.586Z,1016.21
2022-11-26T01:48:39.602Z,1016.19
2022-11-26T01:49:00.675Z,1016.25
2022-11-26T01:49:21.723Z,1016.23
2022-11-26T01:49:42.786Z,1016.21
2022-11-26T01:50:03.882Z,1016.27
2022-11-26T01:50:24.929Z,1016.23
2022-11-26T01:50:45.979Z,1016.25
2022-11-26T01:51:07.147Z,1016.27
2022-11-26T01:51:28.223Z,1016.27
2022-11-26T01:51:49.271Z,1016.29
2022-11-26T01:52:10.367Z,1016.27
2022-11-26T01:52:31.400Z,1016.29
2022-11-26T01:52:52.461Z,1016.31
2022-11-26T01:53:13.525Z,1016.31
2022-11-26T01:53:34.573Z,1016.29
2022-11-26T01:53:55.650Z,1016.31
2022-11-26T01:54:16.712Z,1016.33
2022-11-26T01:54:38.088Z,1016.33
2022-11-26T01:54:59.286Z,1016.31
2022-11-26T01:55:20.349Z,1016.31
2022-11-26T01:55:41.400Z,1016.31
2022-11-26T01:56:02.568Z,1016.35
2022-11-26T01:56:23.632Z,1016.33
2022-11-26T01:56:44.713Z,1016.35
2022-11-26T01:57:05.744Z,1016.33
2022-11-26T01:57:26.801Z,1016.33
2022-11-26T01:57:47.852Z,1016.33
2022-11-26T01:58:08.933Z,1016.31
2022-11-26T01:58:29.971Z,1016.35
2022-11-26T01:58:51.036Z,1016.33
2022-11-26T01:59:12.080Z,1016.31
2022-11-26T01:59:33.143Z,1016.35
2022-11-26T01:59:54.196Z,1016.31
2022-11-26T02:00:15.253Z,1016.31
2022-11-26T02:00:36.324Z,1016.35
2022-11-26T02:00:57.486Z,1016.35
2022-11-26T02:01:18.729Z,1016.35
2022-11-26T02:01:39.856Z,1016.38
2022-11-26T02:02:00.997Z,1016.37
2022-11-26T02:02:22.098Z,1016.38
2022-11-26T02:02:43.207Z,1016.33
2022-11-26T02:03:04.270Z,1016.33
2022-11-26T02:03:25.318Z,1016.35
2022-11-26T02:03:46.383Z,1016.37
2022-11-26T02:04:07.438Z,1016.35
2022-11-26T02:04:28.493Z,1016.37
2022-11-26T02:04:49.550Z,1016.38
2022-11-26T02:05:10.611Z,1016.40
2022-11-26T02:05:31.694Z,1016.42
2022-11-26T02:05:52.730Z,1016.42
2022-11-26T02:06:13.791Z,1016.44
2022-11-26T02:06:34.996Z,1016.40
2022-11-26T02:06:56.069Z,1016.42
2022-11-26T02:07:17.183Z,1016.42
2022-11-26T02:07:38.281Z,1016.42
2022-11-26T02:07:59.318Z,1016.46
2022-11-26T02:08:20.375Z,1016.48
2022-11-26T02:08:41.426Z,1016.48
2022-11-26T02:09:02.491Z,1016.48
2022-11-26T02:09:23.541Z,1016.48
2022-11-26T02:09:44.611Z,1016.48
2022-11-26T02:10:05.672Z,1016.46
2022-11-26T02:10:26.727Z,1016.48
2022-11-26T02:10:47.779Z,1016.50
2022-11-26T02:11:08.832Z,1016.50
2022-11-26T02:11:29.892Z,1016.50
2022-11-26T02:11:51.097Z,1016.50
2022-11-26T02:12:12.134Z,1016.52
2022-11-26T02:12:33.192Z,1016.52
2022-11-26T02:12:54.254Z,1016.52
2022-11-26T02:13:15.323Z,1016.54
2022-11-26T02:13:36.367Z,1016.52
2022-11-26T02:13:57.434Z,1016.56
2022-11-26T02:14:18.509Z,1016.54
2022-11-26T02:14:39.827Z,1016.56
2022-11-26T02:15:00.974Z,1016.58
2022-11-26T02:15:22.026Z,1016.62
2022-11-26T02:15:43.085Z,1016.60
2022-11-26T02:16:04.219Z,1016.60
2022-11-26T02:16:25.466Z,1016.60
2022-11-26T02:16:46.588Z,1016.60
2022-11-26T02:17:07.642Z,1016.62
2022-11-26T02:17:28.692Z,1016.62
2022-11-26T02:17:49.754Z,1016.62
2022-11-26T02:18:10.799Z,1016.62
2022-11-26T02:18:31.909Z,1016.64
2022-11-26T02:18:52.939Z,1016.62
2022-11-26T02:19:13.990Z,1016.64
2022-11-26T02:19:35.044Z,1016.64
2022-11-26T02:19:56.101Z,1016.66
2022-11-26T02:20:17.165Z,1016.62
2022-11-26T02:20:38.256Z,1016.68
2022-11-26T02:20:59.291Z,1016.64
2022-11-26T02:21:20.362Z,1016.66
2022-11-26T02:21:41.423Z,1016.64
2022-11-26T02:22:02.626Z,1016.66
2022-11-26T02:22:23.698Z,1016.66
2022-11-26T02:22:44.789Z,1016.66
2022-11-26T02:23:05.855Z,1016.70
2022-11-26T02:23:26.960Z,1016.68
2022-11-26T02:23:48.003Z,1016.70
2022-11-26T02:24:09.066Z,1016.70
2022-11-26T02:24:30.157Z,1016.70
2022-11-26T02:24:51.194Z,1016.70
2022-11-26T02:25:12.270Z,1016.78
2022-11-26T02:25:33.336Z,1016.74
2022-11-26T02:25:54.425Z,1016.74
2022-11-26T02:26:15.449Z,1016.76
2022-11-26T02:26:36.505Z,1016.74
2022-11-26T02:26:57.564Z,1016.76
2022-11-26T02:27:18.674Z,1016.78
2022-11-26T02:27:39.746Z,1016.76
2022-11-26T02:28:00.785Z,1016.80
2022-11-26T02:28:21.864Z,1016.76
2022-11-26T02:28:42.902Z,1016.76
2022-11-26T02:29:03.964Z,1016.78
2022-11-26T02:29:25.024Z,1016.78
2022-11-26T02:29:46.073Z,1016.80
2022-11-26T02:30:07.129Z,1016.80
2022-11-26T02:30:28.207Z,1016.80
2022-11-26T02:30:49.283Z,1016.84
2022-11-26T02:31:10.352Z,1016.84
2022-11-26T02:31:31.489Z,1016.82
2022-11-26T02:31:52.686Z,1016.84
2022-11-26T02:32:13.835Z,1016.85
2022-11-26T02:32:34.922Z,1016.85
2022-11-26T02:32:55.977Z,1016.87
2022-11-26T02:33:17.057Z,1016.84
2022-11-26T02:33:38.112Z,1016.87
2022-11-26T02:33:59.172Z,1016.89
2022-11-26T02:34:20.226Z,1016.89
2022-11-26T02:34:41.725Z,1016.84
2022-11-26T02:35:02.845Z,1016.87
2022-11-26T02:35:23.916Z,1016.87
2022-11-26T02:35:44.961Z,1016.87
2022-11-26T02:36:06.030Z,1016.91
2022-11-26T02:36:27.111Z,1016.91
2022-11-26T02:36:48.196Z,1016.91
2022-11-26T02:37:09.249Z,1016.91
2022-11-26T02:37:30.301Z,1016.93
2022-11-26T02:37:51.385Z,1016.95
2022-11-26T02:38:12.412Z,1016.99
2022-11-26T02:38:33.468Z,1016.97
2022-11-26T02:38:54.543Z,1017.01
2022-11-26T02:39:15.602Z,1016.99
2022-11-26T02:39:36.650Z,1017.01
2022-11-26T02:39:57.719Z,1017.03
2022-11-26T02:40:18.796Z,1017.03
2022-11-26T02:40:39.846Z,1017.05
2022-11-26T02:41:00.905Z,1017.05
2022-11-26T02:41:21.973Z,1017.01
2022-11-26T02:41:43.030Z,1017.03
2022-11-26T02:42:04.204Z,1017.05
2022-11-26T02:42:25.270Z,1017.03
2022-11-26T02:42:46.411Z,1017.07
2022-11-26T02:43:07.471Z,1017.03
2022-11-26T02:43:28.549Z,1017.03
2022-11-26T02:43:49.594Z,1016.99
2022-11-26T02:44:10.641Z,1016.99
2022-11-26T02:44:31.691Z,1016.99
2022-11-26T02:44:52.789Z,1017.01
2022-11-26T02:45:13.831Z,1017.05
2022-11-26T02:45:34.941Z,1017.05
2022-11-26T02:45:56.127Z,1017.01
2022-11-26T02:46:17.286Z,1017.05
2022-11-26T02:46:38.366Z,1017.07
2022-11-26T02:46:59.421Z,1017.09
2022-11-26T02:47:20.494Z,1017.05
2022-11-26T02:47:41.573Z,1017.11
2022-11-26T02:48:02.617Z,1017.05
2022-11-26T02:48:23.674Z,1017.07
2022-11-26T02:48:44.737Z,1017.09
2022-11-26T02:49:05.796Z,1017.09
2022-11-26T02:49:26.862Z,1017.09
2022-11-26T02:49:47.925Z,1017.09
2022-11-26T02:50:09.001Z,1017.09
2022-11-26T02:50:30.036Z,1017.09
2022-11-26T02:50:51.096Z,1017.11
2022-11-26T02:51:12.153Z,1017.07
2022-11-26T02:51:34.939Z,1017.07
2022-11-26T02:51:56.093Z,1017.07
2022-11-26T02:52:17.169Z,1017.07
2022-11-26T02:52:38.373Z,1017.07
2022-11-26T02:52:59.405Z,1017.07
2022-11-26T02:53:20.471Z,1017.07
2022-11-26T02:53:41.543Z,1017.07
2022-11-26T02:54:02.588Z,1017.07
2022-11-26T02:54:23.637Z,1017.07
2022-11-26T02:54:44.702Z,1017.05
2022-11-26T02:55:05.766Z,1017.05
2022-11-26T02:55:26.824Z,1017.05
2022-11-26T02:55:47.888Z,1017.07
2022-11-26T02:56:08.932Z,1017.07
2022-11-26T02:56:29.990Z,1017.07
2022-11-26T02:56:51.052Z,1017.07
2022-11-26T02:57:12.217Z,1017.05
2022-11-26T02:57:33.274Z,1017.09
2022-11-26T02:57:54.346Z,1017.05
2022-11-26T02:58:15.383Z,1017.07
2022-11-26T02:58:36.460Z,1017.07
2022-11-26T02:58:57.517Z,1017.07
2022-11-26T02:59:18.554Z,1017.09
2022-11-26T02:59:39.621Z,1017.09
2022-11-26T03:00:00.680Z,1017.09
2022-11-26T03:00:21.746Z,1017.09
2022-11-26T03:00:42.909Z,1017.11
2022-11-26T03:01:04.011Z,1017.07
2022-11-26T03:01:25.083Z,1017.09
2022-11-26T03:01:46.094Z,1017.11
2022-11-26T03:02:07.149Z,1017.11
2022-11-26T03:02:28.198Z,1017.11
2022-11-26T03:02:49.258Z,1017.13
2022-11-26T03:03:10.358Z,1017.11
2022-11-26T03:03:31.419Z,1017.13
2022-11-26T03:03:52.519Z,1017.15
2022-11-26T03:04:13.667Z,1017.15
2022-11-26T03:04:34.765Z,1017.13
2022-11-26T03:04:55.933Z,1017.15
2022-11-26T03:05:17.005Z,1017.15
2022-11-26T03:05:38.066Z,1017.13
2022-11-26T03:05:59.132Z,1017.15
2022-11-26T03:06:20.183Z,1017.17
2022-11-26T03:06:41.289Z,1017.17
2022-11-26T03:07:02.352Z,1017.17
2022-11-26T03:07:23.551Z,1017.15
2022-11-26T03:07:44.651Z,1017.19
2022-11-26T03:08:05.667Z,1017.13
2022-11-26T03:08:26.736Z,1017.17
2022-11-26T03:08:47.801Z,1017.17
2022-11-26T03:09:08.851Z,1017.17
2022-11-26T03:09:29.913Z,1017.15
2022-11-26T03:09:51.093Z,1017.17
2022-11-26T03:10:12.134Z,1017.17
2022-11-26T03:10:33.189Z,1017.19
2022-11-26T03:10:54.250Z,1017.15
2022-11-26T03:11:15.302Z,1017.13
2022-11-26T03:11:36.376Z,1017.15
2022-11-26T03:11:57.535Z,1017.15
2022-11-26T03:12:18.625Z,1017.17
2022-11-26T03:12:39.767Z,1017.15
2022-11-26T03:13:00.833Z,1017.17
2022-11-26T03:13:21.885Z,1017.15
2022-11-26T03:13:42.969Z,1017.17
2022-11-26T03:14:04.006Z,1017.15
2022-11-26T03:14:25.068Z,1017.15
2022-11-26T03:14:46.141Z,1017.17
2022-11-26T03:15:07.190Z,1017.13
2022-11-26T03:15:28.243Z,1017.15
2022-11-26T03:15:49.305Z,1017.15
2022-11-26T03:16:10.382Z,1017.15
2022-11-26T03:16:31.447Z,1017.19
2022-11-26T03:16:52.567Z,1017.19
2022-11-26T03:17:13.749Z,1017.15
2022-11-26T03:17:34.806Z,1017.17
2022-11-26T03:17:55.863Z,1017.19
2022-11-26T03:18:16.913Z,1017.19
2022-11-26T03:18:37.971Z,1017.19
2022-11-26T03:18:59.028Z,1017.17
2022-11-26T03:19:20.136Z,1017.19
2022-11-26T03:19:41.176Z,1017.23
2022-11-26T03:20:02.238Z,1017.21
2022-11-26T03:20:23.307Z,1017.21
2022-11-26T03:20:44.350Z,1017.21
2022-11-26T03:21:05.407Z,1017.23
2022-11-26T03:21:26.468Z,1017.21
2022-11-26T03:21:47.521Z,1017.19
2022-11-26T03:22:08.582Z,1017.21
2022-11-26T03:22:29.669Z,1017.23
2022-11-26T03:22:50.834Z,1017.21
2022-11-26T03:23:11.888Z,1017.21
2022-11-26T03:23:32.949Z,1017.19
2022-11-26T03:23:54.001Z,1017.19
2022-11-26T03:24:15.055Z,1017.19
2022-11-26T03:24:36.333Z,1017.19
2022-11-26T03:24:57.541Z,1017.15
2022-11-26T03:25:18.603Z,1017.19
2022-11-26T03:25:39.652Z,1017.17
2022-11-26T03:26:00.710Z,1017.17
2022-11-26T03:26:21.766Z,1017.17
2022-11-26T03:26:42.862Z,1017.17
2022-11-26T03:27:03.899Z,1017.17
2022-11-26T03:27:24.948Z,1017.15
2022-11-26T03:27:46.021Z,1017.15
2022-11-26T03:28:07.217Z,1017.15
2022-11-26T03:28:28.282Z,1017.17
2022-11-26T03:28:49.398Z,1017.19
2022-11-26T03:29:10.446Z,1017.19
2022-11-26T03:29:31.547Z,1017.17
2022-11-26T03:29:52.597Z,1017.19
2022-11-26T03:30:13.668Z,1017.15
2022-11-26T03:30:34.729Z,1017.17
2022-11-26T03:30:55.791Z,1017.19
2022-11-26T03:31:16.957Z,1017.17
2022-11-26T03:31:38.182Z,1017.21
2022-11-26T03:31:59.335Z,1017.21
2022-11-26T03:32:20.383Z,1017.15
2022-11-26T03:32:41.452Z,1017.19
2022-11-26T03:33:02.502Z,1017.17
2022-11-26T03:33:23.576Z,1017.19
2022-11-26T03:33:44.635Z,1017.19
2022-11-26T03:34:05.685Z,1017.21
2022-11-26T03:34:26.734Z,1017.21
2022-11-26T03:34:47.819Z,1017.21
2022-11-26T03:35:08.857Z,1017.19
2022-11-26T03:35:29.917Z,1017.21
2022-11-26T03:35:50.969Z,1017.21
2022-11-26T03:36:12.029Z,1017.19
2022-11-26T03:36:33.091Z,1017.21
2022-11-26T03:36:54.146Z,1017.21
2022-11-26T03:37:15.231Z,1017.25
2022-11-26T03:37:36.271Z,1017.21
2022-11-26T03:37:57.325Z,1017.23
2022-11-26T03:38:18.383Z,1017.25
2022-11-26T03:38:39.545Z,1017.27
2022-11-26T03:39:00.600Z,1017.27
2022-11-26T03:39:21.653Z,1017.25
2022-11-26T03:39:42.709Z,1017.25
2022-11-26T03:40:03.768Z,1017.27
2022-11-26T03:40:24.830Z,1017.29
2022-11-26T03:40:45.891Z,1017.31
2022-11-26T03:41:06.954Z,1017.31
2022-11-26T03:41:28.013Z,1017.29
2022-11-26T03:41:49.066Z,1017.29
2022-11-26T03:42:10.188Z,1017.32
2022-11-26T03:42:31.245Z,1017.32
2022-11-26T03:42:52.308Z,1017.32
2022-11-26T03:43:13.362Z,1017.34
2022-11-26T03:43:34.430Z,1017.34
2022-11-26T03:43:55.632Z,1017.34
2022-11-26T03:44:16.678Z,1017.34
2022-11-26T03:44:38.154Z,1017.36
2022-11-26T03:44:59.402Z,1017.34
2022-11-26T03:45:20.408Z,1017.34
2022-11-26T03:45:41.512Z,1017.36
2022-11-26T03:46:02.666Z,1017.38
2022-11-26T03:46:23.711Z,1017.38
2022-11-26T03:46:44.782Z,1017.38
2022-11-26T03:47:05.834Z,1017.38
2022-11-26T03:47:26.891Z,1017.36
2022-11-26T03:47:47.959Z,1017.38
2022-11-26T03:48:09.050Z,1017.38
2022-11-26T03:48:30.091Z,1017.40
2022-11-26T03:48:51.147Z,1017.34
2022-11-26T03:49:12.335Z,1017.34
2022-11-26T03:49:33.392Z,1017.36
2022-11-26T03:49:54.453Z,1017.38
2022-11-26T03:50:15.609Z,1017.40
2022-11-26T03:50:36.662Z,1017.38
2022-11-26T03:50:57.713Z,1017.38
2022-11-26T03:51:18.786Z,1017.42
2022-11-26T03:51:39.842Z,1017.40
2022-11-26T03:52:00.885Z,1017.40
2022-11-26T03:52:21.972Z,1017.42
2022-11-26T03:52:43.014Z,1017.42
2022-11-26T03:53:04.099Z,1017.42
2022-11-26T03:53:25.155Z,1017.44
2022-11-26T03:53:46.202Z,1017.44
2022-11-26T03:54:07.261Z,1017.46
2022-11-26T03:54:28.437Z,1017.44
2022-11-26T03:54:49.515Z,1017.44
2022-11-26T03:55:10.580Z,1017.42
2022-11-26T03:55:31.614Z,1017.42
2022-11-26T03:55:52.703Z,1017.44
2022-11-26T03:56:13.738Z,1017.46
2022-11-26T03:56:34.790Z,1017.46
2022-11-26T03:56:55.865Z,1017.46
2022-11-26T03:57:16.904Z,1017.46
2022-11-26T03:57:37.976Z,1017.48
2022-11-26T03:57:59.030Z,1017.46
2022-11-26T03:58:20.083Z,1017.46
2022-11-26T03:58:41.140Z,1017.46
2022-11-26T03:59:02.227Z,1017.46
2022-11-26T03:59:23.289Z,1017.46
2022-11-26T03:59:44.376Z,1017.44
2022-11-26T04:00:05.444Z,1017.44
2022-11-26T04:00:26.517Z,1017.44
2022-11-26T04:00:47.561Z,1017.40
2022-11-26T04:01:08.677Z,1017.40
2022-11-26T04:01:29.788Z,1017.42
2022-11-26T04:01:50.933Z,1017.42
2022-11-26T04:02:11.993Z,1017.40
2022-11-26T04:02:33.078Z,1017.40
2022-11-26T04:02:54.152Z,1017.42
2022-11-26T04:03:15.327Z,1017.38
2022-11-26T04:03:36.413Z,1017.42
2022-11-26T04:03:57.444Z,1017.42
2022-11-26T04:04:18.511Z,1017.40
2022-11-26T04:04:39.844Z,1017.42
2022-11-26T04:05:01.108Z,1017.42
2022-11-26T04:05:22.164Z,1017.42
2022-11-26T04:05:43.222Z,1017.42
2022-11-26T04:06:04.414Z,1017.42
2022-11-26T04:06:25.465Z,1017.44
2022-11-26T04:06:46.522Z,1017.42
2022-11-26T04:07:07.623Z,1017.42
2022-11-26T04:07:28.715Z,1017.44
2022-11-26T04:07:49.819Z,1017.44
2022-11-26T04:08:10.888Z,1017.44
2022-11-26T04:08:31.982Z,1017.42
2022-11-26T04:08:53.043Z,1017.46
2022-11-26T04:09:14.131Z,1017.40
2022-11-26T04:09:35.169Z,1017.42
2022-11-26T04:09:56.227Z,1017.44
2022-11-26T04:10:17.298Z,1017.44
2022-11-26T04:10:38.346Z,1017.44
2022-11-26T04:10:59.416Z,1017.42
2022-11-26T04:11:20.479Z,1017.44
2022-11-26T04:11:41.547Z,1017.44
2022-11-26T04:12:02.596Z,1017.46
2022-11-26T04:12:23.659Z,1017.48
2022-11-26T04:12:44.711Z,1017.44
2022-11-26T04:13:05.777Z,1017.46
2022-11-26T04:13:26.848Z,1017.48
2022-11-26T04:13:47.907Z,1017.48
2022-11-26T04:14:08.990Z,1017.48
2022-11-26T04:14:30.031Z,1017.50
2022-11-26T04:14:51.094Z,1017.48
2022-11-26T04:15:12.162Z,1017.52